Time;durP1;ratioP1;P1;durP2;ratioP2;P2;SDS_P1;SDS_P2;PMS_P1;PMS_P2;Temp;Humidity;BMP_temperature;BMP_pressure;BME280_temperature;BME280_humidity;BME280_pressure;Samples;Min_cycle;Max_cycle;Signal;HPM_P1;HPM_P2
2023/07/16 00:02:06;;;;;;;8.45;2.47;;;17.80;99.90;;;;;;5071704;28;20036;-48
2023/07/16 00:04:33;;;;;;;9.85;2.92;;;17.90;99.90;;;;;;5071718;28;20036;-50
2023/07/16 00:07:02;;;;;;;8.15;2.22;;;17.90;99.90;;;;;;5071438;28;20503;-49
2023/07/16 00:09:28;;;;;;;10.55;2.70;;;17.90;99.90;;;;;;5071624;28;20044;-46
2023/07/16 00:11:53;;;;;;;9.02;2.05;;;17.90;99.90;;;;;;5053061;28;20052;-50
2023/07/16 00:14:19;;;;;;;10.30;2.55;;;17.90;99.90;;;;;;5071636;28;20042;-50
2023/07/16 00:16:45;;;;;;;11.75;3.13;;;17.80;99.90;;;;;;5071145;28;20032;-47
2023/07/16 00:19:11;;;;;;;10.93;2.53;;;17.90;99.90;;;;;;5071576;28;20090;-50
2023/07/16 00:21:38;;;;;;;10.80;2.60;;;17.80;99.90;;;;;;5070749;28;20033;-50
2023/07/16 00:24:04;;;;;;;6.55;2.25;;;17.80;99.90;;;;;;5071357;28;20099;-48
2023/07/16 00:26:30;;;;;;;8.45;2.05;;;17.70;99.90;;;;;;5069398;28;20067;-47
2023/07/16 00:28:55;;;;;;;11.02;2.63;;;17.60;99.90;;;;;;5071442;28;20040;-47
2023/07/16 00:31:21;;;;;;;7.63;2.25;;;17.60;99.90;;;;;;5071231;28;20483;-49
2023/07/16 00:33:46;;;;;;;9.15;2.67;;;17.60;99.90;;;;;;5071028;28;20040;-48
2023/07/16 00:36:12;;;;;;;9.30;2.80;;;17.50;99.90;;;;;;5070615;28;20802;-48
2023/07/16 00:38:40;;;;;;;6.78;2.50;;;17.50;99.90;;;;;;5070666;28;20037;-46
2023/07/16 00:41:05;;;;;;;12.60;2.78;;;17.50;99.90;;;;;;5068542;28;20123;-52
2023/07/16 00:43:31;;;;;;;9.27;2.40;;;17.40;99.90;;;;;;5070692;28;20127;-49
2023/07/16 00:45:58;;;;;;;11.77;2.67;;;17.40;99.90;;;;;;5069876;28;21071;-49
2023/07/16 00:48:23;;;;;;;12.70;3.60;;;17.40;99.90;;;;;;5071063;28;20492;-48
2023/07/16 00:50:51;;;;;;;9.07;2.75;;;17.40;99.90;;;;;;5070935;28;20067;-47
2023/07/16 00:53:17;;;;;;;8.82;2.55;;;17.40;99.90;;;;;;5069671;28;20120;-48
2023/07/16 00:55:43;;;;;;;10.23;2.60;;;17.30;99.90;;;;;;5067889;28;20139;-47
2023/07/16 00:58:09;;;;;;;6.50;2.30;;;17.30;99.90;;;;;;5069647;28;20048;-49
2023/07/16 01:00:39;;;;;;;10.30;2.80;;;17.30;99.90;;;;;;5071198;28;20028;-47
2023/07/16 01:03:11;;;;;;;13.15;3.30;;;17.30;99.90;;;;;;5070861;28;20071;-51
2023/07/16 01:06:16;;;;;;;10.45;2.67;;;17.30;99.90;;;;;;5071167;28;20020;-47
2023/07/16 01:08:54;;;;;;;9.40;2.88;;;17.30;99.90;;;;;;5047098;28;20041;-47
2023/07/16 01:11:20;;;;;;;17.63;2.90;;;17.30;99.90;;;;;;5070129;28;20060;-48
2023/07/16 01:13:46;;;;;;;12.95;3.50;;;17.30;99.90;;;;;;5070119;28;20107;-48
2023/07/16 01:16:22;;;;;;;9.90;3.08;;;17.30;99.90;;;;;;5070528;28;20172;-45
2023/07/16 01:18:49;;;;;;;8.30;2.95;;;17.30;99.90;;;;;;5074560;28;20079;-49
2023/07/16 01:21:16;;;;;;;10.70;2.70;;;17.30;99.90;;;;;;5074885;28;20036;-48
2023/07/16 01:24:23;;;;;;;8.68;2.45;;;17.40;99.90;;;;;;5074712;28;20047;-47
2023/07/16 01:27:01;;;;;;;7.20;2.40;;;17.40;99.90;;;;;;5073023;28;20040;-48
2023/07/16 01:29:36;;;;;;;7.97;2.58;;;17.40;99.90;;;;;;5073711;28;20036;-49
2023/07/16 01:32:05;;;;;;;8.93;2.90;;;17.40;99.90;;;;;;5074228;28;20037;-48
2023/07/16 01:34:34;;;;;;;9.48;3.22;;;17.40;99.90;;;;;;5074251;28;20084;-49
2023/07/16 01:37:01;;;;;;;8.25;3.25;;;17.50;99.90;;;;;;5073076;28;20479;-50
2023/07/16 01:39:27;;;;;;;9.80;3.20;;;17.50;99.90;;;;;;5071728;28;20071;-50
2023/07/16 01:41:53;;;;;;;9.82;3.58;;;17.50;99.90;;;;;;5073650;28;20060;-49
2023/07/16 01:44:18;;;;;;;9.25;3.17;;;17.50;99.90;;;;;;5074073;28;20028;-49
2023/07/16 01:46:47;;;;;;;10.15;3.45;;;17.50;99.90;;;;;;5072894;28;20365;-50
2023/07/16 01:49:13;;;;;;;9.98;3.40;;;17.50;99.90;;;;;;5074140;28;20040;-48
2023/07/16 01:51:39;;;;;;;9.57;3.22;;;17.50;99.90;;;;;;5073368;28;20090;-48
2023/07/16 01:54:04;;;;;;;10.63;3.55;;;17.50;99.90;;;;;;5073524;28;20032;-47
2023/07/16 01:56:30;;;;;;;8.55;3.50;;;17.40;99.90;;;;;;5070185;28;20087;-48
2023/07/16 01:58:56;;;;;;;9.43;3.17;;;17.40;99.90;;;;;;5070558;28;20495;-50
2023/07/16 02:01:22;;;;;;;10.60;3.30;;;17.40;99.90;;;;;;5073630;28;20032;-47
2023/07/16 02:03:47;;;;;;;8.80;3.20;;;17.40;99.90;;;;;;5071264;28;20526;-48
2023/07/16 02:06:13;;;;;;;12.80;3.33;;;17.40;99.90;;;;;;5070790;28;20087;-48
2023/07/16 02:08:39;;;;;;;7.72;2.90;;;17.30;99.90;;;;;;5069354;28;20037;-46
2023/07/16 02:11:04;;;;;;;8.02;3.28;;;17.30;99.90;;;;;;5072174;28;20047;-47
2023/07/16 02:13:30;;;;;;;10.38;3.42;;;17.20;99.90;;;;;;5071809;28;20119;-48
2023/07/16 02:15:56;;;;;;;8.50;3.40;;;17.20;99.90;;;;;;5071487;28;20399;-48
2023/07/16 02:18:21;;;;;;;10.60;3.35;;;17.20;99.90;;;;;;5071906;28;20137;-48
2023/07/16 02:20:47;;;;;;;10.32;3.03;;;17.20;99.90;;;;;;5071475;28;20463;-46
2023/07/16 02:23:13;;;;;;;11.18;3.53;;;17.20;99.90;;;;;;5072070;28;20036;-51
2023/07/16 02:25:38;;;;;;;10.10;3.28;;;17.10;99.90;;;;;;5071516;28;20123;-48
2023/07/16 02:28:04;;;;;;;8.73;3.30;;;17.10;99.90;;;;;;5071695;28;20041;-50
2023/07/16 02:30:30;;;;;;;8.63;3.22;;;17.10;99.90;;;;;;5070778;28;20059;-52
2023/07/16 02:32:55;;;;;;;9.32;3.60;;;17.10;99.90;;;;;;5072149;28;20036;-49
2023/07/16 02:35:21;;;;;;;9.95;3.65;;;17.00;99.90;;;;;;5072255;28;20664;-50
2023/07/16 02:37:46;;;;;;;9.13;3.50;;;17.10;99.90;;;;;;5072438;28;20036;-49
2023/07/16 02:40:12;;;;;;;10.43;3.75;;;17.10;99.90;;;;;;5073311;28;20040;-49
2023/07/16 02:42:38;;;;;;;8.85;3.60;;;17.10;99.90;;;;;;5072791;28;20049;-51
2023/07/16 02:45:04;;;;;;;11.10;4.07;;;17.10;99.90;;;;;;5073460;28;20036;-48
2023/07/16 02:47:30;;;;;;;8.38;3.85;;;17.10;99.90;;;;;;5073290;28;20068;-51
2023/07/16 02:49:56;;;;;;;11.52;4.07;;;17.10;99.90;;;;;;5072284;28;20487;-48
2023/07/16 02:52:21;;;;;;;8.85;3.80;;;17.00;99.90;;;;;;5073425;28;20123;-47
2023/07/16 02:54:47;;;;;;;10.93;3.95;;;17.00;99.90;;;;;;5073003;28;20044;-48
2023/07/16 02:57:12;;;;;;;8.48;3.97;;;17.00;99.90;;;;;;5072335;28;20041;-49
2023/07/16 02:59:38;;;;;;;9.57;4.00;;;17.00;99.90;;;;;;5072997;28;20040;-48
2023/07/16 03:02:04;;;;;;;10.05;3.97;;;17.00;99.90;;;;;;5072973;28;20067;-49
2023/07/16 03:04:29;;;;;;;12.13;3.90;;;17.00;99.90;;;;;;5073195;28;20082;-51
2023/07/16 03:06:55;;;;;;;9.88;4.13;;;16.90;99.90;;;;;;5071506;28;20119;-48
2023/07/16 03:09:21;;;;;;;12.65;4.22;;;16.90;99.90;;;;;;5072852;28;20039;-47
2023/07/16 03:11:46;;;;;;;9.88;4.45;;;16.90;99.90;;;;;;5071930;28;20439;-47
2023/07/16 03:14:12;;;;;;;12.00;5.03;;;16.80;99.90;;;;;;5072612;28;20043;-49
2023/07/16 03:16:38;;;;;;;9.45;4.28;;;16.80;99.90;;;;;;5072657;28;20055;-47
2023/07/16 03:19:03;;;;;;;10.73;4.72;;;16.80;99.90;;;;;;5072505;28;20059;-46
2023/07/16 03:21:29;;;;;;;9.52;3.60;;;16.80;99.90;;;;;;5072554;28;20028;-46
2023/07/16 03:23:55;;;;;;;9.68;4.32;;;16.80;99.90;;;;;;5054236;28;20040;-50
2023/07/16 03:26:20;;;;;;;11.15;4.18;;;16.70;99.90;;;;;;5071941;28;20483;-51
2023/07/16 03:28:46;;;;;;;13.00;4.55;;;16.70;99.90;;;;;;5072114;28;20036;-50
2023/07/16 03:31:11;;;;;;;12.45;4.47;;;16.80;99.90;;;;;;5071910;28;20403;-47
2023/07/16 03:33:37;;;;;;;12.30;4.88;;;16.70;99.90;;;;;;5072116;28;20040;-49
2023/07/16 03:36:03;;;;;;;9.80;4.32;;;16.70;99.90;;;;;;5072044;28;20040;-49
2023/07/16 03:38:28;;;;;;;13.02;4.60;;;16.70;99.90;;;;;;5072577;28;20041;-49
2023/07/16 03:40:54;;;;;;;11.63;4.22;;;16.70;99.90;;;;;;5071595;28;20036;-48
2023/07/16 03:43:20;;;;;;;12.23;4.82;;;16.70;99.90;;;;;;5071904;28;20057;-52
2023/07/16 03:45:45;;;;;;;12.43;4.70;;;16.60;99.90;;;;;;5071376;28;20032;-50
2023/07/16 03:48:11;;;;;;;11.15;4.10;;;16.60;99.90;;;;;;5072274;28;20048;-50
2023/07/16 03:50:37;;;;;;;9.18;4.35;;;16.60;99.90;;;;;;5072099;28;20068;-49
2023/07/16 03:53:03;;;;;;;10.02;4.57;;;16.60;99.90;;;;;;5071561;28;20036;-48
2023/07/16 03:55:29;;;;;;;12.85;4.70;;;16.60;99.90;;;;;;5070830;28;20036;-51
2023/07/16 03:57:55;;;;;;;17.05;4.30;;;16.60;99.90;;;;;;5071080;28;20090;-51
2023/07/16 04:00:21;;;;;;;11.82;4.22;;;16.60;99.90;;;;;;5071745;28;20025;-50
2023/07/16 04:02:47;;;;;;;12.57;4.85;;;16.60;99.90;;;;;;5071766;28;20036;-50
2023/07/16 04:05:12;;;;;;;10.85;4.57;;;16.60;99.90;;;;;;5071594;28;20071;-48
2023/07/16 04:07:38;;;;;;;10.82;5.10;;;16.60;99.90;;;;;;5070242;28;20028;-49
2023/07/16 04:10:04;;;;;;;11.35;4.75;;;16.60;99.90;;;;;;5053977;28;20076;-48
2023/07/16 04:12:30;;;;;;;11.40;4.80;;;16.60;99.90;;;;;;5071204;28;20033;-51
2023/07/16 04:14:59;;;;;;;12.60;4.43;;;16.70;99.90;;;;;;5071640;28;21248;-47
2023/07/16 04:17:25;;;;;;;14.25;4.50;;;16.60;99.90;;;;;;5086785;28;20036;-47
2023/07/16 04:19:51;;;;;;;13.65;4.97;;;16.60;99.90;;;;;;5071382;28;20040;-50
2023/07/16 04:22:17;;;;;;;10.02;4.40;;;16.70;99.90;;;;;;5071426;28;20033;-48
2023/07/16 04:24:43;;;;;;;10.98;4.50;;;16.60;99.90;;;;;;5071382;28;20201;-50
2023/07/16 04:27:09;;;;;;;10.70;4.60;;;16.70;99.90;;;;;;5070935;28;20047;-49
2023/07/16 04:29:34;;;;;;;11.23;4.28;;;16.60;99.90;;;;;;5071523;28;20479;-48
2023/07/16 04:32:00;;;;;;;12.77;4.53;;;16.70;99.90;;;;;;5071140;28;20041;-48
2023/07/16 04:34:26;;;;;;;11.73;4.20;;;16.60;99.90;;;;;;5070708;28;20041;-50
2023/07/16 04:36:51;;;;;;;11.57;4.28;;;16.60;99.90;;;;;;5071490;28;20091;-51
2023/07/16 04:39:17;;;;;;;13.82;5.22;;;16.70;99.90;;;;;;5071140;28;20045;-50
2023/07/16 04:41:43;;;;;;;10.98;4.47;;;16.70;99.90;;;;;;5070997;28;20052;-48
2023/07/16 04:44:08;;;;;;;10.75;4.45;;;16.70;99.90;;;;;;5070688;28;20041;-50
2023/07/16 04:46:34;;;;;;;8.95;3.95;;;16.70;99.90;;;;;;5069858;28;20460;-46
2023/07/16 04:49:00;;;;;;;10.50;4.38;;;16.70;99.90;;;;;;5071106;28;20043;-48
2023/07/16 04:51:26;;;;;;;12.63;4.55;;;16.70;99.90;;;;;;5068854;28;20040;-50
2023/07/16 04:53:52;;;;;;;11.23;3.70;;;16.80;99.90;;;;;;5069378;28;20169;-49
2023/07/16 04:56:18;;;;;;;10.27;3.58;;;16.80;99.90;;;;;;5069784;28;20044;-51
2023/07/16 04:58:43;;;;;;;9.73;3.95;;;16.80;99.90;;;;;;5070995;28;20036;-47
2023/07/16 05:01:09;;;;;;;12.38;4.63;;;16.80;99.90;;;;;;5070705;28;20037;-48
2023/07/16 05:03:36;;;;;;;11.48;3.97;;;16.90;99.90;;;;;;5070423;28;20033;-51
2023/07/16 05:06:02;;;;;;;10.80;3.80;;;16.90;99.90;;;;;;5069588;28;20480;-48
2023/07/16 05:08:28;;;;;;;8.52;3.80;;;16.90;99.90;;;;;;5071175;28;20051;-46
2023/07/16 05:10:54;;;;;;;10.38;3.83;;;17.00;99.90;;;;;;5070502;28;20036;-48
2023/07/16 05:13:19;;;;;;;8.55;3.60;;;17.00;99.90;;;;;;5070690;28;20074;-48
2023/07/16 05:15:45;;;;;;;12.43;3.72;;;17.00;99.90;;;;;;5070803;28;20044;-51
2023/07/16 05:18:10;;;;;;;10.15;3.88;;;17.10;99.90;;;;;;5070412;28;20032;-48
2023/07/16 05:20:36;;;;;;;9.60;3.90;;;17.10;99.90;;;;;;5069747;28;20068;-50
2023/07/16 05:23:02;;;;;;;15.18;3.45;;;17.10;99.90;;;;;;5070920;28;20055;-47
2023/07/16 05:25:28;;;;;;;11.27;3.90;;;17.20;99.90;;;;;;5069515;28;20047;-51
2023/07/16 05:27:53;;;;;;;11.75;4.15;;;17.20;99.90;;;;;;5070302;28;20050;-49
2023/07/16 05:30:19;;;;;;;10.25;4.15;;;17.20;99.90;;;;;;5070131;28;20063;-47
2023/07/16 05:32:45;;;;;;;9.75;4.13;;;17.20;99.90;;;;;;5070744;28;20056;-47
2023/07/16 05:35:11;;;;;;;11.57;4.30;;;17.30;99.90;;;;;;5070719;28;20051;-47
2023/07/16 05:37:36;;;;;;;10.93;4.70;;;17.30;99.90;;;;;;5067379;28;20442;-45
2023/07/16 05:40:03;;;;;;;10.55;4.57;;;17.30;99.90;;;;;;5052509;28;20036;-50
2023/07/16 05:42:29;;;;;;;10.95;4.45;;;17.30;99.90;;;;;;5070068;28;20048;-48
2023/07/16 05:44:55;;;;;;;12.88;4.72;;;17.30;99.90;;;;;;5069319;28;20091;-50
2023/07/16 05:47:21;;;;;;;12.32;4.38;;;17.40;99.90;;;;;;5069249;28;20064;-50
2023/07/16 05:49:46;;;;;;;10.55;5.28;;;17.40;99.90;;;;;;5069854;28;20107;-49
2023/07/16 05:52:12;;;;;;;13.98;4.85;;;17.40;99.90;;;;;;5070446;28;20040;-51
2023/07/16 05:54:38;;;;;;;10.27;4.78;;;17.50;99.90;;;;;;5070653;28;20042;-53
2023/07/16 05:57:04;;;;;;;11.38;4.88;;;17.50;99.90;;;;;;5069811;28;20036;-47
2023/07/16 05:59:34;;;;;;;11.55;4.70;;;17.50;99.90;;;;;;5068358;28;20037;-47
2023/07/16 06:01:59;;;;;;;13.30;4.95;;;17.60;99.90;;;;;;5070012;28;20037;-47
2023/07/16 06:04:25;;;;;;;11.32;4.75;;;17.60;99.90;;;;;;5072391;28;20396;-47
2023/07/16 06:06:51;;;;;;;11.20;4.75;;;17.60;99.90;;;;;;5074081;28;20037;-49
2023/07/16 06:09:17;;;;;;;12.60;5.15;;;17.60;99.90;;;;;;5073773;28;20558;-49
2023/07/16 06:11:43;;;;;;;9.25;4.75;;;17.70;99.90;;;;;;5073984;28;20048;-47
2023/07/16 06:14:08;;;;;;;10.85;5.00;;;17.70;99.90;;;;;;5072688;28;20155;-51
2023/07/16 06:16:34;;;;;;;10.05;5.10;;;17.80;99.90;;;;;;5073545;28;20198;-50
2023/07/16 06:19:00;;;;;;;13.75;5.22;;;17.80;99.90;;;;;;5073754;28;20043;-51
2023/07/16 06:21:25;;;;;;;12.13;4.78;;;17.80;99.90;;;;;;5073860;28;20131;-52
2023/07/16 06:23:51;;;;;;;8.10;4.88;;;17.90;99.90;;;;;;5072167;28;20040;-52
2023/07/16 06:26:16;;;;;;;10.05;4.28;;;17.90;99.90;;;;;;5071724;28;20043;-49
2023/07/16 06:28:42;;;;;;;14.48;4.45;;;18.00;99.90;;;;;;5073441;28;20033;-50
2023/07/16 06:31:08;;;;;;;11.55;4.75;;;18.10;99.90;;;;;;5073505;28;20045;-49
2023/07/16 06:33:33;;;;;;;11.68;5.35;;;18.10;99.90;;;;;;5072922;28;20156;-47
2023/07/16 06:35:59;;;;;;;11.25;4.78;;;18.10;99.90;;;;;;5073697;28;20085;-51
2023/07/16 06:38:25;;;;;;;11.88;4.68;;;18.10;99.90;;;;;;5073155;28;20115;-48
2023/07/16 06:40:52;;;;;;;10.07;4.80;;;18.10;99.90;;;;;;5073281;28;20032;-49
2023/07/16 06:43:18;;;;;;;11.57;5.03;;;18.20;99.90;;;;;;5071733;28;20126;-50
2023/07/16 06:45:44;;;;;;;13.75;5.18;;;18.30;99.90;;;;;;5071995;28;20040;-50
2023/07/16 06:48:09;;;;;;;11.23;5.00;;;18.40;99.90;;;;;;5073111;28;20052;-51
2023/07/16 06:50:35;;;;;;;9.27;4.60;;;18.40;99.90;;;;;;5073455;28;20043;-49
2023/07/16 06:53:01;;;;;;;9.75;5.40;;;18.40;99.90;;;;;;5070542;28;20044;-50
2023/07/16 06:55:26;;;;;;;11.27;4.93;;;18.50;99.90;;;;;;5073088;28;20044;-48
2023/07/16 06:57:52;;;;;;;9.57;4.78;;;18.50;99.90;;;;;;5072161;28;20484;-49
2023/07/16 07:00:18;;;;;;;9.88;4.63;;;18.50;99.90;;;;;;5065832;28;20063;-49
2023/07/16 07:02:43;;;;;;;10.95;5.07;;;18.50;99.90;;;;;;5065069;28;20046;-51
2023/07/16 07:05:09;;;;;;;10.98;4.82;;;18.50;99.90;;;;;;5064590;28;20323;-48
2023/07/16 07:07:35;;;;;;;9.25;4.75;;;18.50;99.90;;;;;;5064222;28;20039;-48
2023/07/16 07:10:01;;;;;;;11.13;5.47;;;18.50;99.90;;;;;;5064809;28;20081;-49
2023/07/16 07:12:26;;;;;;;8.95;4.85;;;18.60;99.90;;;;;;5064229;28;20512;-49
2023/07/16 07:14:52;;;;;;;11.82;5.10;;;18.60;99.90;;;;;;5063599;28;20113;-49
2023/07/16 07:17:18;;;;;;;13.65;5.47;;;18.70;99.90;;;;;;5063822;28;20043;-50
2023/07/16 07:19:44;;;;;;;9.48;4.78;;;18.80;99.90;;;;;;5063814;28;20594;-48
2023/07/16 07:22:10;;;;;;;10.93;4.95;;;18.80;99.90;;;;;;5062820;28;20044;-50
2023/07/16 07:24:35;;;;;;;12.30;4.95;;;18.80;99.90;;;;;;5063970;28;20434;-50
2023/07/16 07:27:02;;;;;;;11.65;4.93;;;18.90;99.90;;;;;;5063312;28;20045;-47
2023/07/16 07:29:27;;;;;;;11.18;4.97;;;18.90;99.90;;;;;;5064034;28;20049;-49
2023/07/16 07:31:53;;;;;;;11.77;4.90;;;18.90;99.90;;;;;;5061400;28;20438;-49
2023/07/16 07:34:19;;;;;;;10.25;4.80;;;18.90;99.90;;;;;;5065708;28;20087;-48
2023/07/16 07:36:45;;;;;;;11.00;4.70;;;19.00;99.90;;;;;;5063365;28;20062;-49
2023/07/16 07:39:10;;;;;;;12.25;5.63;;;19.00;99.90;;;;;;5063362;28;20064;-49
2023/07/16 07:41:36;;;;;;;11.60;5.07;;;19.10;99.90;;;;;;5065082;28;20105;-49
2023/07/16 07:44:02;;;;;;;10.60;4.82;;;19.20;99.90;;;;;;5062899;28;20068;-48
2023/07/16 07:46:27;;;;;;;11.73;4.97;;;19.20;99.90;;;;;;5065415;28;20079;-48
2023/07/16 07:48:53;;;;;;;7.82;4.13;;;19.30;99.90;;;;;;5066137;28;20028;-48
2023/07/16 07:51:20;;;;;;;10.27;5.20;;;19.30;99.90;;;;;;5062850;28;20033;-49
2023/07/16 07:53:46;;;;;;;13.80;4.82;;;19.50;99.90;;;;;;5062813;28;20033;-48
2023/07/16 07:56:11;;;;;;;9.75;4.60;;;19.60;99.90;;;;;;5065179;28;20044;-47
2023/07/16 07:58:37;;;;;;;10.00;4.88;;;19.70;99.90;;;;;;5065049;28;20040;-49
2023/07/16 08:01:05;;;;;;;10.40;4.80;;;19.70;99.90;;;;;;5063127;28;20037;-53
2023/07/16 08:03:31;;;;;;;8.57;4.78;;;19.80;99.90;;;;;;5063463;28;20032;-47
2023/07/16 08:05:56;;;;;;;12.30;5.07;;;19.90;99.90;;;;;;5064293;28;20041;-49
2023/07/16 08:08:22;;;;;;;11.55;4.60;;;19.90;99.90;;;;;;5064636;28;20847;-48
2023/07/16 08:10:48;;;;;;;14.75;5.30;;;19.80;99.90;;;;;;5062963;28;20393;-48
2023/07/16 08:13:13;;;;;;;14.50;5.07;;;19.80;99.90;;;;;;5063612;28;20111;-50
2023/07/16 08:15:39;;;;;;;11.63;4.80;;;19.80;99.90;;;;;;5063008;28;20042;-50
2023/07/16 08:18:05;;;;;;;13.45;5.05;;;19.90;99.90;;;;;;5064149;28;20131;-49
2023/07/16 08:20:30;;;;;;;11.52;5.00;;;19.90;99.90;;;;;;5062077;28;20569;-53
2023/07/16 08:22:56;;;;;;;11.00;4.45;;;19.90;99.90;;;;;;5062677;28;20032;-50
2023/07/16 08:25:22;;;;;;;9.65;4.68;;;19.90;99.90;;;;;;5063458;28;20120;-47
2023/07/16 08:27:48;;;;;;;8.95;4.55;;;19.90;99.90;;;;;;5062242;28;20059;-48
2023/07/16 08:30:14;;;;;;;10.70;4.50;;;20.00;99.90;;;;;;5063168;28;20494;-49
2023/07/16 08:32:39;;;;;;;11.05;4.30;;;19.90;99.90;;;;;;5062233;28;20454;-48
2023/07/16 08:35:06;;;;;;;12.68;4.38;;;19.90;99.90;;;;;;5062799;28;20024;-46
2023/07/16 08:37:31;;;;;;;8.85;4.50;;;20.00;99.90;;;;;;5063540;28;20122;-46
2023/07/16 08:39:57;;;;;;;16.08;4.55;;;20.10;99.90;;;;;;5063656;28;20116;-48
2023/07/16 08:42:24;;;;;;;12.45;4.68;;;20.10;99.90;;;;;;5062499;28;20102;-49
2023/07/16 08:44:50;;;;;;;9.95;4.60;;;20.10;99.90;;;;;;5060935;28;20048;-48
2023/07/16 08:47:17;;;;;;;10.77;4.60;;;20.10;99.90;;;;;;5061736;28;20495;-50
2023/07/16 08:49:58;;;;;;;8.05;4.28;;;20.20;99.90;;;;;;5062614;28;20035;-52
2023/07/16 08:52:27;;;;;;;13.07;4.55;;;20.20;99.90;;;;;;5063198;28;20039;-48
2023/07/16 08:54:52;;;;;;;10.90;4.50;;;20.20;99.90;;;;;;5062484;28;20035;-49
2023/07/16 08:57:20;;;;;;;9.77;4.28;;;20.30;99.90;;;;;;5045317;28;20031;-49
2023/07/16 08:59:48;;;;;;;13.27;4.00;;;20.30;99.90;;;;;;5045094;28;20048;-50
2023/07/16 09:02:14;;;;;;;9.60;4.25;;;20.30;99.90;;;;;;5063849;28;20032;-52
2023/07/16 09:04:40;;;;;;;10.13;4.57;;;20.30;99.90;;;;;;5061171;28;20490;-50
2023/07/16 09:07:05;;;;;;;12.18;4.38;;;20.30;99.90;;;;;;5061601;28;20040;-50
2023/07/16 09:09:31;;;;;;;11.13;4.50;;;20.20;99.90;;;;;;5062700;28;20597;-48
2023/07/16 09:11:57;;;;;;;10.00;4.38;;;20.10;99.90;;;;;;5068503;28;20059;-50
2023/07/16 09:14:22;;;;;;;10.45;4.15;;;20.10;99.90;;;;;;5065534;28;20119;-49
2023/07/16 09:16:49;;;;;;;10.55;5.00;;;20.00;99.90;;;;;;5061934;28;20224;-46
2023/07/16 09:19:17;;;;;;;9.93;4.47;;;20.00;99.90;;;;;;5062574;28;20040;-48
2023/07/16 09:21:43;;;;;;;11.82;5.15;;;20.00;99.90;;;;;;5063207;28;20407;-50
2023/07/16 09:24:09;;;;;;;12.82;5.18;;;20.10;99.90;;;;;;5065354;28;20069;-53
2023/07/16 09:26:38;;;;;;;11.27;4.70;;;20.40;99.90;;;;;;5062296;28;20044;-49
2023/07/16 09:29:07;;;;;;;10.05;4.38;;;20.60;99.90;;;;;;5061577;28;20140;-50
2023/07/16 09:31:33;;;;;;;11.52;4.80;;;20.80;99.90;;;;;;5064059;28;20499;-49
2023/07/16 09:33:59;;;;;;;12.43;4.55;;;21.10;99.90;;;;;;5063458;28;20029;-51
2023/07/16 09:36:25;;;;;;;8.43;4.30;;;21.10;99.90;;;;;;5062371;28;20182;-48
2023/07/16 09:38:53;;;;;;;11.90;5.13;;;21.10;99.90;;;;;;5074851;28;20055;-51
2023/07/16 09:41:23;;;;;;;7.95;4.45;;;21.00;99.90;;;;;;5064484;28;20029;-50
2023/07/16 09:43:49;;;;;;;11.07;4.95;;;21.00;99.90;;;;;;5066631;28;20047;-50
2023/07/16 09:46:14;;;;;;;9.40;4.40;;;21.00;99.90;;;;;;5067097;28;20048;-49
2023/07/16 09:48:40;;;;;;;8.82;4.30;;;21.00;99.90;;;;;;5064760;28;20468;-50
2023/07/16 09:51:09;;;;;;;9.13;4.32;;;21.00;99.90;;;;;;5060305;28;20037;-48
2023/07/16 09:53:36;;;;;;;11.35;4.70;;;20.80;99.90;;;;;;5062593;28;20597;-46
2023/07/16 09:56:04;;;;;;;9.02;4.35;;;20.60;99.90;;;;;;5062433;28;20376;-49
2023/07/16 09:58:30;;;;;;;9.55;4.60;;;20.50;99.90;;;;;;5060280;28;20066;-47
2023/07/16 10:00:58;;;;;;;9.43;5.05;;;20.30;99.90;;;;;;5062780;28;20071;-49
2023/07/16 10:03:23;;;;;;;9.38;4.75;;;20.30;99.90;;;;;;5063029;28;20040;-47
2023/07/16 10:05:51;;;;;;;10.43;4.53;;;20.20;99.90;;;;;;5066252;28;20021;-48
2023/07/16 10:08:19;;;;;;;10.75;5.32;;;20.20;99.90;;;;;;5065171;28;20537;-48
2023/07/16 10:10:48;;;;;;;7.70;4.38;;;20.40;99.90;;;;;;5066240;28;20104;-49
2023/07/16 10:13:14;;;;;;;11.52;4.43;;;20.80;99.90;;;;;;5063734;28;20503;-47
2023/07/16 10:16:00;;;;;;;8.90;4.60;;;21.10;99.90;;;;;;5065288;28;20040;-46
2023/07/16 10:18:28;;;;;;;9.43;4.38;;;21.20;99.90;;;;;;5064804;28;20564;-49
2023/07/16 10:20:53;;;;;;;10.30;4.25;;;21.10;99.90;;;;;;5064843;28;20039;-51
2023/07/16 10:23:19;;;;;;;8.32;4.43;;;21.00;99.90;;;;;;5064901;28;20036;-50
2023/07/16 10:26:05;;;;;;;12.07;3.85;;;21.00;99.90;;;;;;5047048;28;20037;-49
2023/07/16 10:28:32;;;;;;;10.02;4.68;;;21.00;99.90;;;;;;5064032;28;20051;-50
2023/07/16 10:30:58;;;;;;;12.35;4.50;;;21.00;99.90;;;;;;5066531;28;20779;-51
2023/07/16 10:33:24;;;;;;;10.55;4.68;;;21.00;99.90;;;;;;5064961;28;20098;-51
2023/07/16 10:35:49;;;;;;;7.72;4.25;;;21.00;99.90;;;;;;5064889;28;20048;-50
2023/07/16 10:38:15;;;;;;;8.77;4.00;;;21.10;99.90;;;;;;5064143;28;20032;-46
2023/07/16 10:40:42;;;;;;;9.07;4.60;;;21.20;99.90;;;;;;5064829;28;20040;-48
2023/07/16 10:43:08;;;;;;;11.40;4.43;;;21.20;99.90;;;;;;5058790;28;20052;-49
2023/07/16 10:45:34;;;;;;;10.23;4.40;;;21.30;99.90;;;;;;5063172;28;20059;-50
2023/07/16 10:48:00;;;;;;;10.38;4.78;;;21.30;99.90;;;;;;5062268;28;20479;-47
2023/07/16 10:50:26;;;;;;;9.43;4.40;;;21.50;99.90;;;;;;5059554;28;20075;-48
2023/07/16 10:52:56;;;;;;;9.90;4.53;;;21.40;99.90;;;;;;5061170;28;20119;-47
2023/07/16 10:55:22;;;;;;;10.77;5.18;;;21.50;99.90;;;;;;5062573;28;20040;-46
2023/07/16 10:57:50;;;;;;;9.68;4.70;;;21.60;99.90;;;;;;5061624;28;20075;-45
2023/07/16 11:00:17;;;;;;;12.93;4.40;;;21.60;99.90;;;;;;5062112;28;20044;-48
2023/07/16 11:02:44;;;;;;;8.65;4.13;;;21.50;99.90;;;;;;5062017;28;20434;-49
2023/07/16 11:05:14;;;;;;;10.15;4.75;;;21.30;99.90;;;;;;5060243;28;20431;-48
2023/07/16 11:07:46;;;;;;;10.60;4.80;;;21.10;99.90;;;;;;5060986;28;20039;-47
2023/07/16 11:10:12;;;;;;;9.68;4.75;;;21.00;99.90;;;;;;5062808;28;20516;-46
2023/07/16 11:12:38;;;;;;;10.10;4.65;;;20.90;99.90;;;;;;5061748;28;20051;-47
2023/07/16 11:15:04;;;;;;;11.63;5.30;;;20.80;99.90;;;;;;5061825;28;20388;-47
2023/07/16 11:17:30;;;;;;;10.40;4.80;;;20.70;99.90;;;;;;5056990;28;20036;-47
2023/07/16 11:19:59;;;;;;;9.80;4.30;;;20.70;99.90;;;;;;5060299;28;20033;-48
2023/07/16 11:22:26;;;;;;;9.80;4.38;;;20.60;99.90;;;;;;5061687;28;20033;-47
2023/07/16 11:24:53;;;;;;;10.75;4.95;;;20.60;99.90;;;;;;5058740;28;20519;-47
2023/07/16 11:27:20;;;;;;;11.55;4.82;;;20.50;99.90;;;;;;5059234;28;20020;-48
2023/07/16 11:29:51;;;;;;;10.90;4.70;;;20.60;99.90;;;;;;5061818;28;20052;-52
2023/07/16 11:32:45;;;;;;;8.65;4.45;;;20.60;99.90;;;;;;5062839;28;20040;-47
2023/07/16 11:35:16;;;;;;;7.32;3.92;;;20.80;99.90;;;;;;5063863;28;20045;-47
2023/07/16 11:37:41;;;;;;;8.63;4.50;;;20.90;99.90;;;;;;5063748;28;20136;-49
2023/07/16 11:40:09;;;;;;;7.38;4.28;;;21.10;99.90;;;;;;5063748;28;20111;-48
2023/07/16 11:42:39;;;;;;;10.00;3.97;;;21.20;99.90;;;;;;5063772;28;20508;-47
2023/07/16 11:45:15;;;;;;;9.55;4.78;;;21.30;99.90;;;;;;5063765;28;20578;-49
2023/07/16 11:47:41;;;;;;;7.88;4.20;;;21.30;99.90;;;;;;5045334;28;20098;-48
2023/07/16 11:50:07;;;;;;;8.43;4.18;;;21.30;99.90;;;;;;5064203;28;20454;-50
2023/07/16 11:52:33;;;;;;;9.70;4.50;;;21.30;99.90;;;;;;5063429;28;20483;-47
2023/07/16 11:55:05;;;;;;;9.60;4.45;;;21.40;99.90;;;;;;5064117;28;20129;-46
2023/07/16 11:57:31;;;;;;;9.43;4.25;;;21.60;99.90;;;;;;5063545;28;20047;-49
2023/07/16 11:59:56;;;;;;;9.23;4.40;;;21.60;99.90;;;;;;5063650;28;20041;-46
2023/07/16 12:02:22;;;;;;;10.75;4.35;;;21.50;99.90;;;;;;5062053;28;20045;-47
2023/07/16 12:04:48;;;;;;;10.80;4.53;;;21.40;99.90;;;;;;5063152;28;20045;-50
2023/07/16 12:07:14;;;;;;;8.80;4.50;;;21.20;99.90;;;;;;5063546;28;20060;-49
2023/07/16 12:09:40;;;;;;;9.75;4.30;;;21.10;99.90;;;;;;5063146;28;20439;-48
2023/07/16 12:12:06;;;;;;;9.05;4.72;;;21.10;99.90;;;;;;5063528;28;20116;-47
2023/07/16 12:14:32;;;;;;;10.90;4.55;;;21.10;99.90;;;;;;5064454;28;20101;-51
2023/07/16 12:16:58;;;;;;;10.77;4.30;;;21.20;99.90;;;;;;5065566;28;20040;-48
2023/07/16 12:19:24;;;;;;;10.70;4.22;;;21.20;99.90;;;;;;5063112;28;20139;-52
2023/07/16 12:21:50;;;;;;;9.75;4.10;;;21.20;99.90;;;;;;5063544;28;20107;-51
2023/07/16 12:24:16;;;;;;;9.32;3.80;;;21.20;99.90;;;;;;5062781;28;20115;-45
2023/07/16 12:26:42;;;;;;;9.00;3.80;;;21.20;99.90;;;;;;5063232;28;20420;-47
2023/07/16 12:29:08;;;;;;;7.40;3.95;;;21.10;99.90;;;;;;5064160;28;20067;-49
2023/07/16 12:31:34;;;;;;;8.77;3.47;;;21.10;99.90;;;;;;5062561;28;20048;-49
2023/07/16 12:34:04;;;;;;;8.43;3.50;;;21.20;99.90;;;;;;5064549;28;20037;-48
2023/07/16 12:36:30;;;;;;;6.93;2.63;;;21.30;99.90;;;;;;5062813;28;20036;-49
2023/07/16 12:38:57;;;;;;;5.22;2.03;;;21.40;99.90;;;;;;5063467;28;20532;-48